createdAt,value
2023-03-12T00:00:15.568Z,2.38
2023-03-12T00:02:43.393Z,2.47
2023-03-12T00:05:11.912Z,2.47
2023-03-12T00:07:40.986Z,2.42
2023-03-12T00:10:09.738Z,2.80
2023-03-12T00:12:37.506Z,2.63
2023-03-12T00:15:08.417Z,2.25
2023-03-12T00:17:39.497Z,2.53
2023-03-12T00:20:07.849Z,2.30
2023-03-12T00:22:35.973Z,2.67
2023-03-12T00:25:06.638Z,2.60
2023-03-12T00:27:34.593Z,3.10
2023-03-12T00:30:02.747Z,2.63
2023-03-12T00:32:30.585Z,3.60
2023-03-12T00:34:58.491Z,2.92
2023-03-12T00:37:26.869Z,2.85
2023-03-12T00:39:55.694Z,3.67
2023-03-12T00:42:25.155Z,3.60
2023-03-12T00:44:56.281Z,3.25
2023-03-12T00:47:26.249Z,3.50
2023-03-12T00:49:57.134Z,3.55
2023-03-12T00:52:25.113Z,3.65
2023-03-12T00:54:53.193Z,3.07
2023-03-12T00:57:21.235Z,3.20
2023-03-12T00:59:50.480Z,3.30
2023-03-12T01:02:18.483Z,3.40
2023-03-12T01:04:46.415Z,3.70
2023-03-12T01:07:17.231Z,3.53
2023-03-12T01:09:45.131Z,2.80
2023-03-12T01:12:13.002Z,3.15
2023-03-12T01:14:43.189Z,2.92
2023-03-12T01:17:12.357Z,3.15
2023-03-12T01:19:40.118Z,2.63
2023-03-12T01:22:07.889Z,2.78
2023-03-12T01:24:35.763Z,3.00
2023-03-12T01:27:03.633Z,2.45
2023-03-12T01:29:31.512Z,2.60
2023-03-12T01:31:59.783Z,3.17
2023-03-12T01:34:30.757Z,2.50
2023-03-12T01:36:58.668Z,2.95
2023-03-12T01:39:26.826Z,2.70
2023-03-12T01:41:54.782Z,2.80
2023-03-12T01:44:22.730Z,2.83
2023-03-12T01:46:50.686Z,2.70
2023-03-12T01:49:26.849Z,2.65
2023-03-12T01:52:02.490Z,2.78
2023-03-12T01:54:42.058Z,2.90
2023-03-12T01:57:15.652Z,2.93
2023-03-12T01:59:47.940Z,2.70
2023-03-12T02:02:18.538Z,2.90
2023-03-12T02:04:47.963Z,3.35
2023-03-12T02:07:18.153Z,3.05
2023-03-12T02:09:48.572Z,3.00
2023-03-12T02:12:17.440Z,2.63
2023-03-12T02:14:45.606Z,2.70
2023-03-12T02:17:13.624Z,2.75
2023-03-12T02:19:48.690Z,2.58
2023-03-12T02:22:17.922Z,2.60
2023-03-12T02:24:49.707Z,2.45
2023-03-12T02:27:19.780Z,2.70
2023-03-12T02:29:47.791Z,2.05
2023-03-12T02:32:21.779Z,2.63
2023-03-12T02:34:50.761Z,2.40
2023-03-12T02:37:19.499Z,2.92
2023-03-12T02:39:54.606Z,2.78
2023-03-12T02:42:25.466Z,2.67
2023-03-12T02:44:53.500Z,2.78
2023-03-12T02:47:21.342Z,3.07
2023-03-12T02:49:49.246Z,2.60
2023-03-12T02:52:17.033Z,3.22
2023-03-12T02:54:44.998Z,3.30
2023-03-12T02:57:13.366Z,3.17
2023-03-12T02:59:42.916Z,2.83
2023-03-12T03:02:12.701Z,2.80
2023-03-12T03:04:40.768Z,2.95
2023-03-12T03:07:08.767Z,3.40
2023-03-12T03:09:36.707Z,2.97
2023-03-12T03:12:05.643Z,3.20
2023-03-12T03:14:35.098Z,2.80
2023-03-12T03:17:04.325Z,2.92
2023-03-12T03:19:32.189Z,2.70
2023-03-12T03:22:00.129Z,3.10
2023-03-12T03:24:27.996Z,2.70
2023-03-12T03:26:55.765Z,3.00
2023-03-12T03:29:23.735Z,2.88
2023-03-12T03:31:51.623Z,2.50
2023-03-12T03:34:21.000Z,2.60
2023-03-12T03:36:48.981Z,2.97
2023-03-12T03:39:18.058Z,3.00
2023-03-12T03:41:47.261Z,2.67
2023-03-12T03:44:17.768Z,3.70
2023-03-12T03:46:47.785Z,2.50
2023-03-12T03:49:16.759Z,2.77
2023-03-12T03:51:46.221Z,2.45
2023-03-12T03:54:17.424Z,2.85
2023-03-12T03:56:47.520Z,2.88
2023-03-12T03:59:15.455Z,2.65
2023-03-12T04:01:44.189Z,2.70
2023-03-12T04:04:12.090Z,2.90
2023-03-12T04:06:40.288Z,2.67
2023-03-12T04:09:09.456Z,2.92
2023-03-12T04:11:39.378Z,2.50
2023-03-12T04:14:09.187Z,2.50
2023-03-12T04:16:39.751Z,2.80
2023-03-12T04:19:07.523Z,3.08
2023-03-12T04:21:35.297Z,2.70
2023-03-12T04:24:03.095Z,2.50
2023-03-12T04:26:35.674Z,2.67
2023-03-12T04:29:05.571Z,2.00
2023-03-12T04:31:33.788Z,2.17
2023-03-12T04:34:02.931Z,2.40
2023-03-12T04:36:30.797Z,2.40
2023-03-12T04:38:59.135Z,2.37
2023-03-12T04:41:31.694Z,2.35
2023-03-12T04:44:11.531Z,2.05
2023-03-12T04:46:40.875Z,2.20
2023-03-12T04:49:10.406Z,2.40
2023-03-12T04:51:39.688Z,2.27
2023-03-12T04:54:08.399Z,2.80
2023-03-12T04:56:37.505Z,2.40
2023-03-12T04:59:06.295Z,2.20
2023-03-12T05:01:38.075Z,1.95
2023-03-12T05:04:12.416Z,2.30
2023-03-12T05:06:40.294Z,2.40
2023-03-12T05:09:08.365Z,2.55
2023-03-12T05:11:39.217Z,2.47
2023-03-12T05:14:08.048Z,2.28
2023-03-12T05:16:37.395Z,2.00
2023-03-12T05:19:06.027Z,2.13
2023-03-12T05:21:34.408Z,2.10
2023-03-12T05:24:02.463Z,2.50
2023-03-12T05:26:33.170Z,2.55
2023-03-12T05:29:13.567Z,2.20
2023-03-12T05:31:43.508Z,2.45
2023-03-12T05:34:13.582Z,2.17
2023-03-12T05:36:44.138Z,2.50
2023-03-12T05:39:13.737Z,2.20
2023-03-12T05:41:41.706Z,2.00
2023-03-12T05:44:17.293Z,2.53
2023-03-12T05:46:50.886Z,2.47
2023-03-12T05:49:18.885Z,2.33
2023-03-12T05:51:47.903Z,2.40
2023-03-12T05:54:17.146Z,2.23
2023-03-12T05:56:48.059Z,2.50
2023-03-12T05:59:15.933Z,2.60
2023-03-12T06:01:44.955Z,2.30
2023-03-12T06:04:14.592Z,2.67
2023-03-12T06:06:42.378Z,2.77
2023-03-12T06:09:10.857Z,2.58
2023-03-12T06:11:38.706Z,2.60
2023-03-12T06:14:06.754Z,2.30
2023-03-12T06:16:36.658Z,2.75
2023-03-12T06:19:05.714Z,2.63
2023-03-12T06:21:36.761Z,2.95
2023-03-12T06:24:08.095Z,2.78
2023-03-12T06:26:46.041Z,2.97
2023-03-12T06:29:13.965Z,2.97
2023-03-12T06:31:42.187Z,2.50
2023-03-12T06:34:10.264Z,3.25
2023-03-12T06:36:39.670Z,3.00
2023-03-12T06:39:08.727Z,3.33
2023-03-12T06:41:36.985Z,3.40
2023-03-12T06:44:06.282Z,3.23
2023-03-12T06:46:34.678Z,3.40
2023-03-12T06:49:02.695Z,3.55
2023-03-12T06:51:30.734Z,3.75
2023-03-12T06:54:01.031Z,4.13
2023-03-12T06:56:29.022Z,4.67
2023-03-12T06:58:57.086Z,4.57
2023-03-12T07:01:24.954Z,5.15
2023-03-12T07:03:52.846Z,4.80
2023-03-12T07:06:22.890Z,4.65
2023-03-12T07:08:51.221Z,4.70
2023-03-12T07:11:20.570Z,5.15
2023-03-12T07:13:48.373Z,5.70
2023-03-12T07:16:16.291Z,5.20
2023-03-12T07:18:44.218Z,5.70
2023-03-12T07:21:12.024Z,5.90
2023-03-12T07:23:39.864Z,5.88
2023-03-12T07:26:07.949Z,6.07
2023-03-12T07:28:37.075Z,6.03
2023-03-12T07:31:06.585Z,6.32
2023-03-12T07:33:35.145Z,6.23
2023-03-12T07:36:03.391Z,6.05
2023-03-12T07:38:31.758Z,6.60
2023-03-12T07:41:00.922Z,7.00
2023-03-12T07:43:28.987Z,6.82
2023-03-12T07:45:58.359Z,7.37
2023-03-12T07:48:26.349Z,7.60
2023-03-12T07:50:54.193Z,7.50
2023-03-12T07:53:22.019Z,7.38
2023-03-12T07:55:50.329Z,8.10
2023-03-12T07:58:18.574Z,7.13
2023-03-12T08:00:46.637Z,7.18
2023-03-12T08:03:16.964Z,9.20
2023-03-12T08:05:45.600Z,8.23
2023-03-12T08:08:13.480Z,8.30
2023-03-12T08:10:41.340Z,9.17
2023-03-12T08:13:09.154Z,9.18
2023-03-12T08:15:36.962Z,8.70
2023-03-12T08:18:05.038Z,9.18
2023-03-12T08:20:34.297Z,9.77
2023-03-12T08:23:02.200Z,9.67
2023-03-12T08:25:30.197Z,8.82
2023-03-12T08:27:58.073Z,9.02
2023-03-12T08:30:27.799Z,9.20
2023-03-12T08:32:57.805Z,9.77
2023-03-12T08:35:25.733Z,9.50
2023-03-12T08:37:56.916Z,10.45
2023-03-12T08:40:30.510Z,9.35
2023-03-12T08:42:59.514Z,9.93
2023-03-12T08:45:27.312Z,10.13
2023-03-12T08:47:55.196Z,11.07
2023-03-12T08:50:25.289Z,10.35
2023-03-12T08:52:53.187Z,11.00
2023-03-12T08:55:22.379Z,11.27
2023-03-12T08:57:50.251Z,11.63
2023-03-12T09:00:18.966Z,12.87
2023-03-12T09:02:47.328Z,12.05
2023-03-12T09:05:15.852Z,13.48
2023-03-12T09:07:43.634Z,12.60
2023-03-12T09:10:12.211Z,13.57
2023-03-12T09:12:41.376Z,12.20
2023-03-12T09:15:10.601Z,14.13
2023-03-12T09:17:38.792Z,14.23
2023-03-12T09:20:09.453Z,14.52
2023-03-12T09:22:37.921Z,15.50
2023-03-12T09:25:07.072Z,15.40
2023-03-12T09:27:37.657Z,15.32
2023-03-12T09:30:09.412Z,17.35
2023-03-12T09:32:37.563Z,15.25
2023-03-12T09:35:05.891Z,13.68
2023-03-12T09:37:34.264Z,14.50
2023-03-12T09:40:05.764Z,12.88
2023-03-12T09:42:42.481Z,11.80
2023-03-12T09:45:17.960Z,10.57
2023-03-12T09:47:50.086Z,9.30
2023-03-12T09:50:27.214Z,9.27
2023-03-12T09:53:00.389Z,8.32
2023-03-12T09:55:29.935Z,6.28
2023-03-12T09:57:59.307Z,7.60
2023-03-12T10:00:32.749Z,6.90
2023-03-12T10:03:17.655Z,6.60
2023-03-12T10:05:50.906Z,6.43
2023-03-12T10:08:30.227Z,6.38
2023-03-12T10:11:08.183Z,6.40
2023-03-12T10:14:04.556Z,6.15
2023-03-12T10:16:48.071Z,5.97
2023-03-12T10:19:25.952Z,5.75
2023-03-12T10:22:01.165Z,6.03
2023-03-12T10:24:42.699Z,5.95
2023-03-12T10:27:13.734Z,5.45
2023-03-12T10:29:47.121Z,6.20
2023-03-12T10:32:18.718Z,6.38
2023-03-12T10:34:48.698Z,5.43
2023-03-12T10:37:22.117Z,5.20
2023-03-12T10:39:50.840Z,5.15
2023-03-12T10:42:21.114Z,5.90
2023-03-12T10:44:53.544Z,6.70
2023-03-12T10:47:36.724Z,4.90
2023-03-12T10:50:16.989Z,5.10
2023-03-12T10:52:47.670Z,5.00
2023-03-12T10:55:22.747Z,5.63
2023-03-12T10:57:51.505Z,4.82
2023-03-12T11:00:22.338Z,4.35
2023-03-12T11:03:00.407Z,4.93
2023-03-12T11:05:31.169Z,4.88
2023-03-12T11:08:01.882Z,4.40
2023-03-12T11:10:42.705Z,3.80
2023-03-12T11:13:25.705Z,4.25
2023-03-12T11:15:54.610Z,3.42
2023-03-12T11:18:37.746Z,4.22
2023-03-12T11:21:18.202Z,3.60
2023-03-12T11:23:49.193Z,3.80
2023-03-12T11:26:19.294Z,3.70
2023-03-12T11:28:50.622Z,3.72
2023-03-12T11:31:24.682Z,3.50
2023-03-12T11:34:05.890Z,3.70
2023-03-12T11:36:44.669Z,3.88
2023-03-12T11:39:25.365Z,3.13
2023-03-12T11:42:08.140Z,3.88
2023-03-12T11:44:40.932Z,3.83
2023-03-12T11:47:24.144Z,3.63
2023-03-12T11:50:09.224Z,3.75
2023-03-12T11:52:50.721Z,3.22
2023-03-12T11:55:24.502Z,4.05
2023-03-12T11:58:09.682Z,3.78
2023-03-12T12:00:47.833Z,3.43
2023-03-12T12:03:47.941Z,3.38
2023-03-12T12:06:24.218Z,3.50
2023-03-12T12:09:05.111Z,3.83
2023-03-12T12:11:45.231Z,4.15
2023-03-12T12:14:29.806Z,4.03
2023-03-12T12:17:10.876Z,3.38
2023-03-12T12:19:53.699Z,3.42
2023-03-12T12:22:33.121Z,3.97
2023-03-12T12:25:25.408Z,4.60
2023-03-12T12:28:05.533Z,3.90
2023-03-12T12:30:45.820Z,3.28
2023-03-12T12:33:27.510Z,3.60
2023-03-12T12:35:55.454Z,5.63
2023-03-12T12:38:30.991Z,3.15
2023-03-12T12:41:07.659Z,3.67
2023-03-12T12:43:38.778Z,4.20
2023-03-12T12:46:09.959Z,3.58
2023-03-12T12:48:41.235Z,4.13
2023-03-12T12:51:10.738Z,4.10
2023-03-12T12:53:46.892Z,4.17
2023-03-12T12:56:22.163Z,4.57
2023-03-12T12:59:27.191Z,4.68
2023-03-12T13:01:56.840Z,3.47
2023-03-12T13:04:28.037Z,3.53
2023-03-12T13:07:03.464Z,4.77
2023-03-12T13:09:43.305Z,3.65
2023-03-12T13:12:19.298Z,4.15
2023-03-12T13:14:48.773Z,4.03
2023-03-12T13:17:24.185Z,3.90
2023-03-12T13:20:00.902Z,3.23
2023-03-12T13:22:45.850Z,4.68
2023-03-12T13:25:27.874Z,3.53
2023-03-12T13:28:00.379Z,5.07
2023-03-12T13:30:50.712Z,3.20
2023-03-12T13:33:21.727Z,3.37
2023-03-12T13:36:05.764Z,4.32
2023-03-12T13:38:39.982Z,4.47
2023-03-12T13:41:09.460Z,3.75
2023-03-12T13:43:52.114Z,3.92
2023-03-12T13:46:31.167Z,3.60
2023-03-12T13:49:03.948Z,4.68
2023-03-12T13:51:32.099Z,4.03
2023-03-12T13:54:02.330Z,3.88
2023-03-12T13:56:33.977Z,3.70
2023-03-12T13:59:06.908Z,3.33
2023-03-12T14:01:38.813Z,4.18
2023-03-12T14:04:11.905Z,5.25
2023-03-12T14:06:59.080Z,4.00
2023-03-12T14:09:33.417Z,3.92
2023-03-12T14:12:08.213Z,3.60
2023-03-12T14:15:07.102Z,3.95
2023-03-12T14:17:37.444Z,6.47
2023-03-12T14:20:13.878Z,4.47
2023-03-12T14:22:44.839Z,4.93
2023-03-12T14:25:17.574Z,4.10
2023-03-12T14:27:48.411Z,4.13
2023-03-12T14:30:23.553Z,4.15
2023-03-12T14:32:54.976Z,3.95
2023-03-12T14:35:25.933Z,4.38
2023-03-12T14:38:00.102Z,3.80
2023-03-12T14:40:39.379Z,3.38
2023-03-12T14:43:25.900Z,4.30
2023-03-12T14:45:56.875Z,4.22
2023-03-12T14:48:28.133Z,4.30
2023-03-12T14:50:58.197Z,4.17
2023-03-12T14:53:27.985Z,4.50
2023-03-12T14:56:04.677Z,4.53
2023-03-12T14:58:35.348Z,3.60
2023-03-12T15:01:05.528Z,4.80
2023-03-12T15:03:41.738Z,3.50
2023-03-12T15:06:16.032Z,3.22
2023-03-12T15:08:45.246Z,3.72
2023-03-12T15:11:13.533Z,3.45
2023-03-12T15:13:42.803Z,3.75
2023-03-12T15:16:10.866Z,3.90
2023-03-12T15:18:39.006Z,3.42
2023-03-12T15:21:07.657Z,4.68
2023-03-12T15:23:38.512Z,3.17
2023-03-12T15:26:11.258Z,3.60
2023-03-12T15:28:40.238Z,3.27
2023-03-12T15:31:15.495Z,3.92
2023-03-12T15:33:44.945Z,3.80
2023-03-12T15:36:27.805Z,4.03
2023-03-12T15:39:00.115Z,4.20
2023-03-12T15:41:33.506Z,4.40
2023-03-12T15:44:02.177Z,3.53
2023-03-12T15:46:31.617Z,4.10
2023-03-12T15:49:00.765Z,4.47
2023-03-12T15:51:31.959Z,4.18
2023-03-12T15:54:01.969Z,4.97
2023-03-12T15:56:32.227Z,3.65
2023-03-12T15:59:20.905Z,3.30
2023-03-12T16:01:52.910Z,3.90
2023-03-12T16:04:21.964Z,5.13
2023-03-12T16:06:52.680Z,3.57
2023-03-12T16:09:24.519Z,4.10
2023-03-12T16:11:53.113Z,3.95
2023-03-12T16:14:25.538Z,4.03
2023-03-12T16:16:54.899Z,3.95
2023-03-12T16:19:24.719Z,3.93
2023-03-12T16:21:52.616Z,4.18
2023-03-12T16:24:20.474Z,3.88
2023-03-12T16:26:53.119Z,3.90
2023-03-12T16:29:22.227Z,4.35
2023-03-12T16:31:52.820Z,4.10
2023-03-12T16:34:22.292Z,3.85
2023-03-12T16:36:50.079Z,4.75
2023-03-12T16:39:19.059Z,3.83
2023-03-12T16:41:47.629Z,4.03
2023-03-12T16:44:18.421Z,4.07
2023-03-12T16:46:46.489Z,3.65
2023-03-12T16:49:16.583Z,4.28
2023-03-12T16:51:45.973Z,3.95
2023-03-12T16:54:13.735Z,4.28
2023-03-12T16:56:45.802Z,3.37
2023-03-12T16:59:19.072Z,4.60
2023-03-12T17:01:47.068Z,4.75
2023-03-12T17:04:15.310Z,4.00
2023-03-12T17:06:43.248Z,4.45
2023-03-12T17:09:12.365Z,4.20
2023-03-12T17:11:40.750Z,4.07
2023-03-12T17:14:17.899Z,4.93
2023-03-12T17:16:45.798Z,4.32
2023-03-12T17:19:13.618Z,5.32
2023-03-12T17:21:41.903Z,4.70
2023-03-12T17:24:13.914Z,5.60
2023-03-12T17:26:42.217Z,5.05
2023-03-12T17:29:10.166Z,4.82
2023-03-12T17:31:38.482Z,5.13
2023-03-12T17:34:06.451Z,5.27
2023-03-12T17:36:37.046Z,4.65
2023-03-12T17:39:04.966Z,5.60
2023-03-12T17:41:34.369Z,4.60
2023-03-12T17:44:03.709Z,5.32
2023-03-12T17:46:32.127Z,4.80
2023-03-12T17:49:00.352Z,5.00
2023-03-12T17:51:28.150Z,4.65
2023-03-12T17:53:56.041Z,6.18
2023-03-12T17:56:24.113Z,4.93
2023-03-12T17:58:53.347Z,4.80
2023-03-12T18:01:21.121Z,4.57
2023-03-12T18:03:51.107Z,5.45
2023-03-12T18:06:19.954Z,4.57
2023-03-12T18:08:47.939Z,5.53
2023-03-12T18:11:15.921Z,5.30
2023-03-12T18:13:43.752Z,4.97
2023-03-12T18:16:13.495Z,5.85
2023-03-12T18:18:41.651Z,7.57
2023-03-12T18:21:09.606Z,5.47
2023-03-12T18:23:37.549Z,6.30
2023-03-12T18:26:06.025Z,7.35
2023-03-12T18:28:33.888Z,5.32
2023-03-12T18:31:01.732Z,3.97
2023-03-12T18:33:31.728Z,5.15
2023-03-12T18:35:59.682Z,5.23
2023-03-12T18:38:27.519Z,5.70
2023-03-12T18:41:04.912Z,5.38
2023-03-12T18:43:33.223Z,5.30
2023-03-12T18:46:01.086Z,4.63
2023-03-12T18:48:29.075Z,4.33
2023-03-12T18:50:58.385Z,4.18
2023-03-12T18:53:26.648Z,4.00
2023-03-12T18:55:55.371Z,5.30
2023-03-12T18:58:24.948Z,4.80
2023-03-12T19:00:53.429Z,3.90
2023-03-12T19:03:21.872Z,4.32
2023-03-12T19:05:50.384Z,4.38
2023-03-12T19:08:20.741Z,4.22
2023-03-12T19:10:48.534Z,3.45
2023-03-12T19:13:16.398Z,3.90
2023-03-12T19:15:45.204Z,4.32
2023-03-12T19:18:13.311Z,4.00
2023-03-12T19:20:41.313Z,4.35
2023-03-12T19:23:09.338Z,4.70
2023-03-12T19:25:38.558Z,4.77
2023-03-12T19:28:06.614Z,4.63
2023-03-12T19:30:34.415Z,3.60
2023-03-12T19:33:02.365Z,4.00
2023-03-12T19:35:30.458Z,5.05
2023-03-12T19:37:59.527Z,3.63
2023-03-12T19:40:27.370Z,3.90
2023-03-12T19:42:56.568Z,4.07
2023-03-12T19:45:24.580Z,3.58
2023-03-12T19:47:53.213Z,3.03
2023-03-12T19:50:21.298Z,3.30
2023-03-12T19:52:49.511Z,3.95
2023-03-12T19:55:17.705Z,3.10
2023-03-12T19:57:45.722Z,4.60
2023-03-12T20:00:16.909Z,3.60
2023-03-12T20:02:46.006Z,3.20
2023-03-12T20:05:14.213Z,4.60
2023-03-12T20:07:42.345Z,3.67
2023-03-12T20:10:11.415Z,3.45
2023-03-12T20:12:39.604Z,3.25
2023-03-12T20:15:08.639Z,2.70
2023-03-12T20:17:37.858Z,2.60
2023-03-12T20:20:08.402Z,2.80
2023-03-12T20:22:36.981Z,3.83
2023-03-12T20:25:05.847Z,2.03
2023-03-12T20:27:35.154Z,2.50
2023-03-12T20:30:03.694Z,2.92
2023-03-12T20:32:31.798Z,2.33
2023-03-12T20:35:01.045Z,2.83
2023-03-12T20:37:28.880Z,3.47
2023-03-12T20:39:56.713Z,2.87
2023-03-12T20:42:24.774Z,2.25
2023-03-12T20:44:52.584Z,3.70
2023-03-12T20:51:13.255Z,4.07
2023-03-12T20:53:41.303Z,3.47
2023-03-12T20:56:09.957Z,3.00
2023-03-12T20:58:37.982Z,3.22
2023-03-12T21:01:06.846Z,3.65
2023-03-12T21:03:34.842Z,4.32
2023-03-12T21:06:03.753Z,4.70
2023-03-12T21:08:34.288Z,3.92
2023-03-12T21:11:02.198Z,3.63
2023-03-12T21:13:30.889Z,3.95
2023-03-12T21:15:58.893Z,3.45
2023-03-12T21:18:26.833Z,3.90
2023-03-12T21:20:54.757Z,3.47
2023-03-12T21:23:22.835Z,4.85
2023-03-12T21:25:58.787Z,4.30
2023-03-12T21:28:26.530Z,4.05
2023-03-12T21:30:54.349Z,4.13
2023-03-12T21:33:22.674Z,4.57
2023-03-12T21:35:50.638Z,3.67
2023-03-12T21:38:18.444Z,3.60
2023-03-12T21:40:46.268Z,3.78
2023-03-12T21:43:15.371Z,3.27
2023-03-12T21:45:47.254Z,3.35
2023-03-12T21:48:15.305Z,3.58
2023-03-12T21:50:43.061Z,3.30
2023-03-12T21:53:22.693Z,3.25
2023-03-12T21:55:55.942Z,3.17
2023-03-12T21:58:25.376Z,2.75
2023-03-12T22:00:53.115Z,4.78
2023-03-12T22:03:20.992Z,2.80
2023-03-12T22:05:53.013Z,3.13
2023-03-12T22:08:20.862Z,3.30
2023-03-12T22:10:50.425Z,2.88
2023-03-12T22:13:18.601Z,3.30
2023-03-12T22:15:54.124Z,2.83
2023-03-12T22:18:22.320Z,3.00
2023-03-12T22:20:52.654Z,3.07
2023-03-12T22:23:21.077Z,3.03
2023-03-12T22:25:48.920Z,2.30
2023-03-12T22:28:17.182Z,2.55
2023-03-12T22:30:44.982Z,2.95
2023-03-12T22:33:14.312Z,3.00
2023-03-12T22:35:45.866Z,2.40
2023-03-12T22:38:14.460Z,3.60
2023-03-12T22:40:42.476Z,2.97
2023-03-12T22:43:10.390Z,2.78
2023-03-12T22:45:38.137Z,3.07
2023-03-12T22:48:06.581Z,3.13
2023-03-12T22:50:35.710Z,3.05
2023-03-12T22:53:03.570Z,2.67
2023-03-12T22:55:31.399Z,3.67
2023-03-12T22:57:59.183Z,3.00
2023-03-12T23:00:27.548Z,3.38
2023-03-12T23:02:55.361Z,3.13
2023-03-12T23:05:23.165Z,3.88
2023-03-12T23:07:52.576Z,2.50
2023-03-12T23:10:20.452Z,2.73
2023-03-12T23:12:48.199Z,2.85
2023-03-12T23:15:15.929Z,3.20
2023-03-12T23:17:43.735Z,2.75
2023-03-12T23:20:13.446Z,3.15
2023-03-12T23:22:41.707Z,3.70
2023-03-12T23:25:11.124Z,3.70
2023-03-12T23:27:38.951Z,4.22
2023-03-12T23:30:07.959Z,4.00
2023-03-12T23:32:36.148Z,4.15
2023-03-12T23:35:03.989Z,4.13
2023-03-12T23:37:32.000Z,4.40
2023-03-12T23:39:59.888Z,4.07
2023-03-12T23:42:29.156Z,4.00
2023-03-12T23:44:57.072Z,4.38
2023-03-12T23:47:24.957Z,4.00
2023-03-12T23:49:52.713Z,3.65
2023-03-12T23:52:20.542Z,4.05
2023-03-12T23:54:48.486Z,3.53
2023-03-12T23:57:16.324Z,4.57
2023-03-12T23:59:45.583Z,4.70
